1870 Major Hurricane NOT_NAMED (1870278N18286)


IBTrACS version v04r00. Visit IBTrACS website for data access.
Please direct all questions to the IBTrACS Q and A forum

Storm track - Intensity - Wind Radii - Intensity Data - Source Data - All data

Summary Information

Storm ID 1870278N18286
Start Oct 5 00Z
Landfall Oct 7 18Z, Oct 8 00Z
Max Intensity 140 kt (Oct 9 12Z), 914 mb (Oct 9 12Z)
End Oct 18 12Z
ATCF IDs ,AL061870
Track status Best track data.

Storm track plot

Map of storm track

Intensity plots

Map of storm track

Radial wind information

No radial wind information for this storm


Position and Intensity Table

BASIN ISO_TIME_________ NATURE LAT LON WMO WIND WMO PRES USA WIND USA PRES MLC WIND MLC PRES
degrees north degrees east kts mb kts mb kts mb
NA 1870-10-05 00:00:00 TS 17.50 -74.00 40 40
NA 03:00:00 TS 17.80 -74.50 40
NA 06:00:00 TS 18.10 -75.00 40 40
NA 09:00:00 TS 18.41 -75.50 45
NA 12:00:00 TS 18.70 -76.00 50 50
NA 15:00:00 TS 18.91 -76.50 50
NA 18:00:00 TS 19.10 -77.00 50 50
NA 21:00:00 TS 19.29 -77.49 55
NA 1870-10-06 00:00:00 TS 19.50 -78.00 60 60
NA 03:00:00 TS 19.74 -78.56 60
NA 06:00:00 TS 20.00 -79.10 60 60
NA 09:00:00 TS 20.31 -79.78 65
NA 12:00:00 TS 20.58 -80.26 70 70 60
NA 15:00:00 TS 20.82 -80.55 70 65
NA 18:00:00 TS 21.03 -80.77 70 70 70
NA 21:00:00 TS 21.22 -80.97 75 72
NA 1870-10-07 00:00:00 TS 21.40 -81.17 80 80 75
NA 03:00:00 TS 21.55 -81.34 85 80
NA 06:00:00 TS 21.70 -81.50 90 90 85
NA 09:00:00 TS 21.88 -81.64 95 92
NA 12:00:00 TS 22.07 -81.77 100 959 100 959 100 959
NA 15:00:00 TS 22.22 -81.89 100 100
NA 18:00:00 TS 22.37 -82.00 100 100 100
NA 21:00:00 TS 22.51 -82.09 95 92
NA 1870-10-08 00:00:00 TS 22.67 -82.13 90 90 85
NA 03:00:00 TS 22.85 -82.14 85 80
NA 06:00:00 TS 23.03 -82.10 80 80 75
NA 09:00:00 TS 23.19 -82.04 85 80
NA 12:00:00 TS 23.33 -81.97 90 90 85 970
NA 15:00:00 TS 23.46 -81.89 90 97
NA 18:00:00 TS 23.57 -81.80 90 90 110
NA 21:00:00 TS 23.67 -81.70 90 115
NA 1870-10-09 00:00:00 TS 23.77 -81.60 90 90 120
NA 03:00:00 TS 23.86 -81.49 90 125
NA 06:00:00 TS 23.93 -81.37 90 90 130
NA 09:00:00 TS 23.99 -81.25 90 135
NA 12:00:00 TS 24.03 -81.13 90 90 140 914
NA 15:00:00 TS 24.10 -81.00 90 135
NA 18:00:00 TS 24.17 -80.90 90 90 130
NA 21:00:00 TS 24.20 -80.86 90 125
NA 1870-10-10 00:00:00 TS 24.23 -80.83 90 90 120
NA 03:00:00 TS 24.26 -80.77 90 115
NA 06:00:00 TS 24.30 -80.70 90 90 110
NA 09:00:00 TS 24.34 -80.65 90 105
NA 12:00:00 TS 24.40 -80.60 90 90 100
NA 15:00:00 TS 24.49 -80.51 90 97
NA 18:00:00 TS 24.60 -80.40 90 90 95
NA 21:00:00 TS 24.71 -80.28 90 92
NA 1870-10-11 00:00:00 TS 24.80 -80.17 90 90 90
NA 03:00:00 TS 24.86 -80.08 90 90
NA 06:00:00 TS 24.93 -80.00 90 90 90
NA 09:00:00 TS 25.06 -79.90 90 87
NA 12:00:00 TS 25.20 -79.77 90 90 85
NA 15:00:00 TS 25.33 -79.57 90 85
NA 18:00:00 TS 25.47 -79.37 90 90 85
NA 21:00:00 TS 25.62 -79.22 90 85
NA 1870-10-12 00:00:00 TS 25.77 -79.07 90 90 85
NA 03:00:00 TS 25.89 -78.87 90 85
NA 06:00:00 TS 26.00 -78.67 90 90 85
NA 09:00:00 TS 26.09 -78.50 85 82
NA 12:00:00 TS 26.23 -78.30 80 80 80
NA 15:00:00 TS 26.47 -78.02 80 80
NA 18:00:00 TS 26.77 -77.67 80 80 80
NA 21:00:00 TS 27.06 -77.28 80 80
NA 1870-10-13 00:00:00 TS 27.37 -76.87 80 80 80
NA 03:00:00 TS 27.66 -76.48 80 80
NA 06:00:00 TS 27.97 -76.10 80 80 80
NA 09:00:00 TS 28.28 -75.73 75 75
NA 12:00:00 TS 28.63 -75.33 70 70 70
NA 15:00:00 TS 29.04 -74.86 70 70
NA 18:00:00 TS 29.47 -74.33 70 70 70
NA 21:00:00 TS 29.88 -73.78 70 70
NA 1870-10-14 00:00:00 TS 30.30 -73.20 70 70 70
NA 03:00:00 TS 30.73 -72.64 70 70
NA 06:00:00 TS 31.17 -72.07 70 70 70
NA 09:00:00 TS 31.63 -71.49 70 70
NA 12:00:00 TS 32.24 -70.86 70 70 70
NA 15:00:00 TS 32.93 -69.97 70 70
NA 18:00:00 TS 33.80 -68.77 70 70 70
NA 21:00:00 TS 35.20 -67.15 70
NA 1870-10-15 00:00:00 TS 35.80 -65.70 70
NA 03:00:00 TS 36.35 -64.30 70
NA 06:00:00 TS 36.90 -62.90 70
NA 09:00:00 TS 37.50 -61.45 70
NA 12:00:00 TS 38.10 -60.00 70
NA 15:00:00 TS 38.66 -58.59 67
NA 18:00:00 TS 39.20 -57.20 65
NA 21:00:00 TS 39.74 -55.80 65
NA 1870-10-16 00:00:00 TS 40.30 -54.40 65
NA 03:00:00 TS 40.90 -52.95 65
NA 06:00:00 TS 41.50 -51.50 65
NA 09:00:00 TS 42.05 -50.10 65
NA 12:00:00 TS 42.60 -48.70 65
NA 15:00:00 TS 43.20 -47.25 65
NA 18:00:00 TS 43.80 -45.80 65
NA 21:00:00 TS 44.35 -44.40 62
NA 1870-10-17 00:00:00 ET 44.90 -43.00 60
NA 03:00:00 ET 45.50 -41.56 60
NA 06:00:00 ET 46.10 -40.10 60
NA 09:00:00 ET 46.69 -38.66 60
NA 12:00:00 ET 47.20 -37.20 60
NA 15:00:00 ET 47.58 -35.75 60
NA 18:00:00 ET 47.90 -34.20 60
NA 21:00:00 ET 48.25 -32.44 60
NA 1870-10-18 00:00:00 ET 48.60 -30.60 60
NA 03:00:00 ET 48.95 -28.79 60
NA 06:00:00 ET 49.30 -27.00 60
NA 09:00:00 ET 49.65 -25.25 60
NA 12:00:00 ET 50.00 -23.50 60

Source Information

Agency Information
USA hurdat2-1851-2019-042820.txt:Line=2013:UNNAMED
TOKYO
CMA
HKO
NEWDELHI
REUNION
BOM
NADI
WELLINGTON
DS824
TD9636
TD9635
NEUMANN
MLC

All available IBTrACS Data

SEASON BASIN SUBBASIN ISO_TIME_________ NATURE LAT LON WMO WIND WMO PRES WMO AGENCY DIST2LAND LANDFALL IFLAG USA AGENCY USA ATCF_ID USA LAT USA LON USA STATUS USA WIND USA PRES USA SSHS MLC LAT MLC LON MLC CLASS MLC WIND MLC PRES STORM SPEED STORM DIR
Year degrees north degrees east kts mb km km degrees north degrees east kts mb 1 degrees north degrees east kts mb kts degrees
1870 NA CS 1870-10-05 00:00:00 TS 17.50 -74.00 40 hurdat_atl 56 49 O_____________ hurdat_atl AL061870 17.50 -74.00 TS 40 0 11 302
1870 NA CS 03:00:00 TS 17.80 -74.50 56 49 P_____________ AL061870 17.80 -74.50 TS 40 0 11 302
1870 NA CS 06:00:00 TS 18.10 -75.00 40 hurdat_atl 62 62 O_____________ hurdat_atl AL061870 18.10 -75.00 TS 40 0 11 303
1870 NA CS 09:00:00 TS 18.41 -75.50 87 61 P_____________ AL061870 18.41 -75.50 TS 45 0 11 302
1870 NA CS 12:00:00 TS 18.70 -76.00 50 hurdat_atl 64 59 O_____________ hurdat_atl AL061870 18.70 -76.00 TS 50 0 11 298
1870 NA CS 15:00:00 TS 18.91 -76.50 70 64 P_____________ AL061870 18.91 -76.50 TS 50 0 10 293
1870 NA CS 18:00:00 TS 19.10 -77.00 50 hurdat_atl 78 59 O_____________ hurdat_atl AL061870 19.10 -77.00 TS 50 0 10 292
1870 NA CS 21:00:00 TS 19.29 -77.49 59 39 P_____________ AL061870 19.29 -77.49 TS 55 0 10 293
1870 NA CS 1870-10-06 00:00:00 TS 19.50 -78.00 60 hurdat_atl 45 45 O_____________ hurdat_atl AL061870 19.50 -78.00 TS 60 0 11 294
1870 NA CS 03:00:00 TS 19.74 -78.56 94 94 P_____________ AL061870 19.74 -78.56 TS 60 0 12 296
1870 NA CS 06:00:00 TS 20.00 -79.10 60 hurdat_atl 128 124 O_____________ hurdat_atl AL061870 20.00 -79.10 TS 60 0 13 296
1870 NA CS 09:00:00 TS 20.31 -79.78 147 124 P_____________ AL061870 20.25 -79.60 TS 65 1 12 298
1870 NA CS 12:00:00 TS 20.58 -80.26 70 hurdat_atl 126 113 O____________O hurdat_atl AL061870 20.50 -80.00 HU 70 1 20.90 -81.30 TS 60 9 305
1870 NA CS 15:00:00 TS 20.82 -80.55 113 106 P____________P AL061870 20.76 -80.23 HU 70 1 20.99 -81.40 TS 65 7 314
1870 NA CS 18:00:00 TS 21.03 -80.77 70 hurdat_atl 113 91 O____________O hurdat_atl AL061870 21.00 -80.40 HU 70 1 21.10 -81.50 HU 70 6 316
1870 NA CS 21:00:00 TS 21.22 -80.97 91 67 P____________P AL061870 21.22 -80.65 HU 75 1 21.24 -81.60 HU 72 5 314
1870 NA CS 1870-10-07 00:00:00 TS 21.40 -81.17 80 hurdat_atl 67 55 O____________O hurdat_atl AL061870 21.40 -80.90 HU 80 1 21.40 -81.70 HU 75 5 313
1870 NA CS 03:00:00 TS 21.55 -81.34 56 45 P____________P AL061870 21.55 -81.12 HU 85 2 21.55 -81.80 HU 80 4 314
1870 NA CS 06:00:00 TS 21.70 -81.50 90 hurdat_atl 45 30 O____________O hurdat_atl AL061870 21.70 -81.30 HU 90 2 21.70 -81.90 HU 85 4 320
1870 NA CS 09:00:00 TS 21.88 -81.64 30 11 P____________P AL061870 21.90 -81.46 HU 95 2 21.85 -82.01 HU 92 4 326
1870 NA CS 12:00:00 TS 22.07 -81.77 100 959 hurdat_atl 11 0 O____________O hurdat_atl AL061870 22.10 -81.60 HU 100 959 3 22.00 -82.10 MH 100 959 4 325
1870 NA CS 15:00:00 TS 22.22 -81.89 10 0 P____________P AL061870 22.26 -81.76 HU 100 3 22.15 -82.17 MH 100 4 324
1870 NA NA 18:00:00 TS 22.37 -82.00 100 hurdat_atl 0 0 O____________O hurdat_atl AL061870 22.40 -81.90 HU 100 3 22.30 -82.20 MH 100 3 328
1870 NA CS 21:00:00 TS 22.51 -82.09 11 0 P____________P AL061870 22.54 -82.02 HU 95 2 22.45 -82.21 MH 92 3 338
1870 NA CS 1870-10-08 00:00:00 TS 22.67 -82.13 90 hurdat_atl 0 0 O____________O hurdat_atl AL061870 22.70 -82.10 HU 90 2 22.60 -82.20 HU 85 3 354
1870 NA NA 03:00:00 TS 22.85 -82.14 0 0 P____________P AL061870 22.90 -82.12 HU 85 2 22.75 -82.16 HU 80 4 6
1870 NA NA 06:00:00 TS 23.03 -82.10 80 hurdat_atl 0 0 O____________O hurdat_atl AL061870 23.10 -82.10 HU 80 1 22.90 -82.10 HU 75 4 14
1870 NA NA 09:00:00 TS 23.19 -82.04 11 11 P____________P AL061870 23.26 -82.06 HU 85 2 23.06 -82.02 HU 80 3 22
1870 NA NA 12:00:00 TS 23.33 -81.97 90 hurdat_atl 22 22 O____________O hurdat_atl AL061870 23.40 -82.00 HU 90 2 23.20 -81.90 HU 85 970 3 29
1870 NA NA 15:00:00 TS 23.46 -81.89 44 44 P____________P AL061870 23.56 -81.95 HU 90 2 23.26 -81.76 HU 97 3 33
1870 NA NA 18:00:00 TS 23.57 -81.80 90 hurdat_atl 55 55 O____________O hurdat_atl AL061870 23.70 -81.90 HU 90 2 23.30 -81.60 MH 110 3 38
1870 NA NA 21:00:00 TS 23.67 -81.70 67 67 P____________P AL061870 23.81 -81.86 HU 90 2 23.40 -81.40 MH 115 3 42
1870 NA NA 1870-10-09 00:00:00 TS 23.77 -81.60 90 hurdat_atl 78 78 O____________O hurdat_atl AL061870 23.90 -81.80 HU 90 2 23.50 -81.20 MH 120 3 47
1870 NA NA 03:00:00 TS 23.86 -81.49 89 89 P____________P AL061870 24.01 -81.71 HU 90 2 23.56 -81.04 MH 125 3 52
1870 NA NA 06:00:00 TS 23.93 -81.37 90 hurdat_atl 89 89 O____________O hurdat_atl AL061870 24.10 -81.60 HU 90 2 23.60 -80.90 MH 130 3 60
1870 NA NA 09:00:00 TS 23.99 -81.25 101 101 P____________P AL061870 24.15 -81.51 HU 90 2 23.66 -80.74 MH 135 2 65
1870 NA NA 12:00:00 TS 24.03 -81.13 90 hurdat_atl 102 102 O____________O hurdat_atl AL061870 24.20 -81.40 HU 90 2 23.70 -80.60 MH 140 914 3 63
1870 NA NA 15:00:00 TS 24.10 -81.00 112 102 P____________P AL061870 24.30 -81.24 HU 90 2 23.71 -80.53 MH 135 3 58
1870 NA NA 18:00:00 TS 24.17 -80.90 90 hurdat_atl 102 102 O____________O hurdat_atl AL061870 24.40 -81.10 HU 90 2 23.70 -80.50 MH 130 2 52
1870 NA NA 21:00:00 TS 24.20 -80.86 102 101 P____________P AL061870 24.46 -81.04 HU 90 2 23.70 -80.49 MH 125 1 41
1870 NA NA 1870-10-10 00:00:00 TS 24.23 -80.83 90 hurdat_atl 101 89 O____________O hurdat_atl AL061870 24.50 -81.00 HU 90 2 23.70 -80.50 MH 120 1 52
1870 NA NA 03:00:00 TS 24.26 -80.77 89 89 P____________P AL061870 24.55 -80.91 HU 90 2 23.69 -80.49 MH 115 1 61
1870 NA NA 06:00:00 TS 24.30 -80.70 90 hurdat_atl 89 89 O____________O hurdat_atl AL061870 24.60 -80.80 HU 90 2 23.70 -80.50 MH 110 1 55
1870 NA NA 09:00:00 TS 24.34 -80.65 89 78 P____________P AL061870 24.64 -80.71 HU 90 2 23.74 -80.55 MH 105 1 40
1870 NA NA 12:00:00 TS 24.40 -80.60 90 hurdat_atl 78 67 O____________O hurdat_atl AL061870 24.70 -80.60 HU 90 2 23.80 -80.60 MH 100 2 41
1870 NA NA 15:00:00 TS 24.49 -80.51 67 55 P____________P AL061870 24.79 -80.46 HU 90 2 23.89 -80.61 MH 97 3 42
1870 NA NA 18:00:00 TS 24.60 -80.40 90 hurdat_atl 55 45 O____________O hurdat_atl AL061870 24.90 -80.30 HU 90 2 24.00 -80.60 HU 95 3 45
1870 NA NA 21:00:00 TS 24.71 -80.28 45 39 P____________P AL061870 25.01 -80.14 HU 90 2 24.10 -80.56 HU 92 3 47
1870 NA NA 1870-10-11 00:00:00 TS 24.80 -80.17 90 hurdat_atl 39 37 O____________O hurdat_atl AL061870 25.10 -80.00 HU 90 2 24.20 -80.50 HU 90 2 49
1870 NA NA 03:00:00 TS 24.86 -80.08 37 37 P____________P AL061870 25.14 -79.90 HU 90 2 24.30 -80.45 HU 90 2 49
1870 NA NA 06:00:00 TS 24.93 -80.00 90 hurdat_atl 46 41 O____________O hurdat_atl AL061870 25.20 -79.80 HU 90 2 24.40 -80.40 HU 90 3 40
1870 NA NA 09:00:00 TS 25.06 -79.90 50 50 P____________P AL061870 25.33 -79.67 HU 90 2 24.50 -80.36 HU 87 3 38
1870 NA NA 12:00:00 TS 25.20 -79.77 90 hurdat_atl 60 60 O____________O hurdat_atl AL061870 25.50 -79.50 HU 90 2 24.60 -80.30 HU 85 4 47
1870 NA NA 15:00:00 TS 25.33 -79.57 73 73 P____________P AL061870 25.64 -79.26 HU 90 2 24.71 -80.20 HU 85 5 54
1870 NA NA 18:00:00 TS 25.47 -79.37 90 hurdat_atl 77 77 O____________O hurdat_atl AL061870 25.80 -79.00 HU 90 2 24.80 -80.10 HU 85 4 48
1870 NA NA 21:00:00 TS 25.62 -79.22 92 90 P____________P AL061870 26.00 -78.80 HU 90 2 24.86 -80.05 HU 85 4 42
1870 NA NA 1870-10-12 00:00:00 TS 25.77 -79.07 90 hurdat_atl 100 100 O____________O hurdat_atl AL061870 26.20 -78.60 HU 90 2 24.90 -80.00 HU 85 4 49
1870 NA NA 03:00:00 TS 25.89 -78.87 119 113 P____________P AL061870 26.36 -78.36 HU 90 2 24.95 -79.90 HU 85 4 57
1870 NA NA 06:00:00 TS 26.00 -78.67 90 hurdat_atl 117 112 O____________O hurdat_atl AL061870 26.50 -78.10 HU 90 2 25.00 -79.80 HU 85 4 58
1870 NA NA 09:00:00 TS 26.09 -78.50 118 115 P____________P AL061870 26.63 -77.86 HU 85 2 25.01 -79.79 HU 82 4 55
1870 NA NA 12:00:00 TS 26.23 -78.30 80 hurdat_atl 124 124 O____________O hurdat_atl AL061870 26.80 -77.60 HU 80 1 25.10 -79.70 HU 80 6 49
1870 NA NA 15:00:00 TS 26.47 -78.02 156 156 P____________P AL061870 27.03 -77.31 HU 80 1 25.35 -79.42 HU 80 8 47
1870 NA NA 18:00:00 TS 26.77 -77.67 80 hurdat_atl 192 192 O____________O hurdat_atl AL061870 27.30 -77.00 HU 80 1 25.70 -79.00 HU 80 9 48
1870 NA NA 21:00:00 TS 27.06 -77.28 234 234 P____________P AL061870 27.55 -76.66 HU 80 1 26.09 -78.52 HU 80 9 50
1870 NA NA 1870-10-13 00:00:00 TS 27.37 -76.87 80 hurdat_atl 279 279 O____________O hurdat_atl AL061870 27.80 -76.30 HU 80 1 26.50 -78.00 HU 80 9 50
1870 NA NA 03:00:00 TS 27.66 -76.48 326 326 P____________P AL061870 28.04 -75.95 HU 80 1 26.90 -77.54 HU 80 9 49
1870 NA NA 06:00:00 TS 27.97 -76.10 80 hurdat_atl 374 374 O____________O hurdat_atl AL061870 28.30 -75.60 HU 80 1 27.30 -77.10 HU 80 9 47
1870 NA NA 09:00:00 TS 28.28 -75.73 424 424 P____________P AL061870 28.59 -75.26 HU 75 1 27.66 -76.67 HU 75 10 45
1870 NA NA 12:00:00 TS 28.63 -75.33 70 hurdat_atl 473 473 O____________O hurdat_atl AL061870 28.90 -74.90 HU 70 1 28.10 -76.20 HU 70 11 45
1870 NA NA 15:00:00 TS 29.04 -74.86 532 532 P____________P AL061870 29.20 -74.48 HU 70 1 28.71 -75.62 HU 70 12 46
1870 NA NA 18:00:00 TS 29.47 -74.33 70 hurdat_atl 602 592 O____________O hurdat_atl AL061870 29.50 -74.00 HU 70 1 29.40 -75.00 HU 70 13 48
1870 NA NA 21:00:00 TS 29.88 -73.78 592 574 P____________P AL061870 29.80 -73.46 HU 70 1 30.04 -74.40 HU 70 13 50
1870 NA NA 1870-10-14 00:00:00 TS 30.30 -73.20 70 hurdat_atl 579 567 O____________O hurdat_atl AL061870 30.10 -72.90 HU 70 1 30.70 -73.80 HU 70 13 49
1870 NA NA 03:00:00 TS 30.73 -72.64 575 564 P____________P AL061870 30.39 -72.36 HU 70 1 31.39 -73.20 HU 70 13 48
1870 NA NA 06:00:00 TS 31.17 -72.07 70 hurdat_atl 565 565 O____________O hurdat_atl AL061870 30.70 -71.80 HU 70 1 32.10 -72.60 HU 70 13 48
1870 NA NA 09:00:00 TS 31.63 -71.49 577 570 P____________P AL061870 31.03 -71.17 HU 70 1 32.82 -72.12 HU 70 15 44
1870 NA NA 12:00:00 TS 32.24 -70.86 70 hurdat_atl 582 581 O____________O hurdat_atl AL061870 31.40 -70.50 HU 70 1 33.50 -71.40 HU 70 18 45
1870 NA NA 15:00:00 TS 32.93 -69.97 598 598 P____________P AL061870 31.79 -69.81 HU 70 1 34.07 -70.13 HU 70 24 48
1870 NA NA 18:00:00 TS 33.80 -68.77 70 hurdat_atl 649 649 O____________O hurdat_atl AL061870 32.20 -69.10 HU 70 1 34.60 -68.60 HU 70 33 46
1870 NA NA 21:00:00 TS 35.20 -67.15 761 747 _____________P AL061870 HU -1 35.20 -67.15 HU 70 32 51
1870 NA NA 1870-10-15 00:00:00 TS 35.80 -65.70 754 752 _____________O 35.80 -65.70 HU 70 26 64
1870 NA NA 03:00:00 TS 36.35 -64.30 775 759 _____________P 36.35 -64.30 HU 70 25 64
1870 NA NA 06:00:00 TS 36.90 -62.90 761 740 _____________O 36.90 -62.90 HU 70 25 63
1870 NA NA 09:00:00 TS 37.50 -61.45 743 737 _____________P 37.50 -61.45 HU 70 26 62
1870 NA NA 12:00:00 TS 38.10 -60.00 747 747 _____________O 38.10 -60.00 HU 70 25 63
1870 NA NA 15:00:00 TS 38.66 -58.59 751 736 _____________P 38.66 -58.59 HU 67 24 63
1870 NA NA 18:00:00 TS 39.20 -57.20 739 735 _____________O 39.20 -57.20 HU 65 24 63
1870 NA NA 21:00:00 TS 39.74 -55.80 749 704 _____________P 39.74 -55.80 HU 65 24 63
1870 NA NA 1870-10-16 00:00:00 TS 40.30 -54.40 703 633 _____________O 40.30 -54.40 HU 65 25 62
1870 NA NA 03:00:00 TS 40.90 -52.95 634 581 _____________P 40.90 -52.95 HU 65 25 61
1870 NA NA 06:00:00 TS 41.50 -51.50 582 560 _____________O 41.50 -51.50 HU 65 24 62
1870 NA NA 09:00:00 TS 42.05 -50.10 567 556 _____________P 42.05 -50.10 HU 65 23 62
1870 NA NA 12:00:00 TS 42.60 -48.70 568 568 _____________O 42.60 -48.70 HU 65 24 61
1870 NA NA 15:00:00 TS 43.20 -47.25 603 602 _____________P 43.20 -47.25 HU 65 24 60
1870 NA NA 18:00:00 TS 43.80 -45.80 652 652 _____________O 43.80 -45.80 HU 65 24 61
1870 NA NA 21:00:00 TS 44.35 -44.40 722 722 _____________P 44.35 -44.40 HU 62 23 61
1870 NA NA 1870-10-17 00:00:00 ET 44.90 -43.00 789 789 _____________O 44.90 -43.00 EX 60 23 60
1870 NA NA 03:00:00 ET 45.50 -41.56 866 866 _____________P 45.50 -41.56 EX 60 24 59
1870 NA NA 06:00:00 ET 46.10 -40.10 959 959 _____________O 46.10 -40.10 EX 60 23 59
1870 NA NA 09:00:00 ET 46.69 -38.66 1049 1049 _____________P 46.69 -38.66 EX 60 23 61
1870 NA NA 12:00:00 ET 47.20 -37.20 1153 1153 _____________O 47.20 -37.20 EX 60 22 66
1870 NA NA 15:00:00 ET 47.58 -35.75 1260 1260 _____________P 47.58 -35.75 EX 60 21 71
1870 NA NA 18:00:00 ET 47.90 -34.20 1368 1368 _____________O 47.90 -34.20 EX 60 23 73
1870 NA NA 21:00:00 ET 48.25 -32.44 1485 1472 _____________P 48.25 -32.44 EX 60 25 74
1870 NA NA 1870-10-18 00:00:00 ET 48.60 -30.60 1466 1338 _____________O 48.60 -30.60 EX 60 25 74
1870 NA NA 03:00:00 ET 48.95 -28.79 1332 1201 _____________P 48.95 -28.79 EX 60 25 74
1870 NA NA 06:00:00 ET 49.30 -27.00 1194 1068 _____________O 49.30 -27.00 EX 60 24 73
1870 NA NA 09:00:00 ET 49.65 -25.25 1057 939 _____________P 49.65 -25.25 EX 60 24 73
1870 NA NA 12:00:00 ET 50.00 -23.50 932 _____________O 50.00 -23.50 EX 60 23 73